TimeCST,TemperatureF,Dew PointF,Humidity,Sea Level PressureIn,VisibilityMPH,Wind Direction,Wind SpeedMPH,Gust SpeedMPH,PrecipitationIn,Events,Conditions,WindDirDegrees,DateUTC
12:53 AM,51.1,39.0,63,30.14,10.0,North,5.8,-,N/A,,Clear,360,2012-11-04 05:53:00
1:53 AM,50.0,39.9,68,30.14,10.0,East,3.5,-,N/A,,Clear,100,2012-11-04 06:53:00
1:53 AM,44.1,37.9,79,30.16,10.0,Calm,Calm,-,N/A,,Clear,0,2012-11-04 07:53:00
2:53 AM,46.9,39.0,74,30.17,10.0,ENE,3.5,-,N/A,,Clear,60,2012-11-04 08:53:00
3:53 AM,48.0,39.9,74,30.17,10.0,NNE,3.5,-,N/A,,Clear,30,2012-11-04 09:53:00
4:53 AM,46.0,39.0,76,30.17,10.0,NE,4.6,-,N/A,,Clear,50,2012-11-04 10:53:00
5:53 AM,46.9,39.0,74,30.19,10.0,NE,3.5,-,N/A,,Clear,40,2012-11-04 11:53:00
6:53 AM,44.1,39.0,82,30.19,10.0,Calm,Calm,-,N/A,,Clear,0,2012-11-04 12:53:00
7:53 AM,48.0,41.0,77,30.19,10.0,East,3.5,-,N/A,,Clear,100,2012-11-04 13:53:00
8:53 AM,53.1,41.0,64,30.19,10.0,East,5.8,-,N/A,,Clear,80,2012-11-04 14:53:00
9:53 AM,57.0,39.9,53,30.20,10.0,ENE,5.8,-,N/A,,Clear,70,2012-11-04 15:53:00
10:53 AM,61.0,39.9,46,30.19,10.0,NE,8.1,-,N/A,,Clear,50,2012-11-04 16:53:00
11:53 AM,63.0,39.9,43,30.17,10.0,Variable,3.5,-,N/A,,Clear,0,2012-11-04 17:53:00
12:53 PM,66.9,37.9,34,30.13,10.0,Variable,6.9,-,N/A,,Clear,0,2012-11-04 18:53:00
1:53 PM,69.1,37.0,31,30.10,10.0,Variable,5.8,-,N/A,,Clear,0,2012-11-04 19:53:00
2:53 PM,71.1,37.0,29,30.08,10.0,NE,6.9,-,N/A,,Clear,40,2012-11-04 20:53:00
3:53 PM,70.0,37.0,30,30.07,10.0,ENE,6.9,-,N/A,,Clear,70,2012-11-04 21:53:00
4:53 PM,66.0,39.0,37,30.07,10.0,ENE,8.1,-,N/A,,Clear,60,2012-11-04 22:53:00
5:53 PM,61.0,39.9,46,30.08,10.0,East,4.6,-,N/A,,Clear,90,2012-11-04 23:53:00
6:53 PM,59.0,39.9,49,30.09,10.0,East,3.5,-,N/A,,Clear,80,2012-11-05 00:53:00
7:53 PM,57.9,39.9,51,30.09,10.0,ENE,3.5,-,N/A,,Clear,60,2012-11-05 01:53:00
8:53 PM,53.1,42.1,66,30.10,10.0,ENE,6.9,-,N/A,,Clear,60,2012-11-05 02:53:00
9:53 PM,51.1,41.0,68,30.11,10.0,NNE,4.6,-,N/A,,Clear,30,2012-11-05 03:53:00
10:53 PM,48.9,41.0,74,30.10,10.0,ENE,6.9,-,N/A,,Clear,70,2012-11-05 04:53:00